Time;durP1;ratioP1;P1;durP2;ratioP2;P2;SDS_P1;SDS_P2;PMS_P1;PMS_P2;Temp;Humidity;BMP_temperature;BMP_pressure;BME280_temperature;BME280_humidity;BME280_pressure;Samples;Min_cycle;Max_cycle;Signal;HPM_P1;HPM_P2
2023/04/27 00:01:32;;;;;;;10.25;7.03;;;2.70;99.90;;;;;;7370854;19;20014;-61
2023/04/27 00:03:58;;;;;;;9.88;6.55;;;2.70;99.90;;;;;;7368447;19;20467;-61
2023/04/27 00:06:26;;;;;;;10.57;6.97;;;2.60;99.90;;;;;;7367986;19;20030;-61
2023/04/27 00:08:52;;;;;;;11.55;7.07;;;2.60;99.90;;;;;;7371312;19;20014;-61
2023/04/27 00:11:18;;;;;;;15.02;7.35;;;2.50;99.90;;;;;;7367897;19;21491;-61
2023/04/27 00:13:44;;;;;;;11.65;7.35;;;2.50;99.90;;;;;;7369053;19;20023;-60
2023/04/27 00:16:11;;;;;;;10.00;6.78;;;2.50;99.90;;;;;;7364955;19;20097;-61
2023/04/27 00:18:37;;;;;;;13.13;7.57;;;2.40;99.90;;;;;;7369317;19;20018;-61
2023/04/27 00:21:03;;;;;;;10.25;7.30;;;2.40;99.90;;;;;;7360996;19;20478;-61
2023/04/27 00:23:29;;;;;;;13.00;7.88;;;2.40;99.90;;;;;;7366464;19;20039;-61
2023/04/27 00:25:55;;;;;;;11.43;7.45;;;2.30;99.90;;;;;;7367584;19;20538;-61
2023/04/27 00:28:22;;;;;;;12.57;7.82;;;2.30;99.90;;;;;;7368700;19;20018;-61
2023/04/27 00:30:48;;;;;;;11.07;7.75;;;2.30;99.90;;;;;;7368683;19;20023;-61
2023/04/27 00:33:16;;;;;;;10.38;7.35;;;2.30;99.90;;;;;;7356954;19;20015;-61
2023/04/27 00:35:42;;;;;;;10.45;6.47;;;2.30;99.90;;;;;;7366993;19;20029;-61
2023/04/27 00:38:09;;;;;;;10.25;7.45;;;2.30;99.90;;;;;;7368589;19;20019;-61
2023/04/27 00:40:36;;;;;;;11.73;7.32;;;2.20;99.90;;;;;;7365573;19;20041;-61
2023/04/27 00:43:02;;;;;;;12.90;7.57;;;2.20;99.90;;;;;;7369706;19;20022;-61
2023/04/27 00:45:28;;;;;;;10.68;7.40;;;2.20;99.90;;;;;;7363381;19;20026;-61
2023/04/27 00:47:55;;;;;;;17.80;8.25;;;2.20;99.90;;;;;;7369515;19;20039;-61
2023/04/27 00:50:30;;;;;;;12.30;7.88;;;2.20;99.90;;;;;;7367133;19;20038;-62
2023/04/27 00:52:56;;;;;;;11.75;8.40;;;2.10;99.90;;;;;;7367524;19;20364;-61
2023/04/27 00:55:26;;;;;;;10.90;7.80;;;2.10;99.90;;;;;;7365741;19;20408;-62
2023/04/27 00:57:52;;;;;;;9.30;7.30;;;2.00;99.90;;;;;;7365350;19;20017;-62
2023/04/27 01:00:18;;;;;;;14.98;7.90;;;2.10;99.90;;;;;;7364394;19;20061;-62
2023/04/27 01:02:46;;;;;;;14.15;6.97;;;2.00;99.90;;;;;;7371538;19;20023;-62
2023/04/27 01:05:13;;;;;;;10.00;7.72;;;2.00;99.90;;;;;;7369120;19;20038;-62
2023/04/27 01:07:39;;;;;;;13.60;7.25;;;1.90;99.90;;;;;;7367910;19;20025;-62
2023/04/27 01:10:07;;;;;;;13.50;7.65;;;1.90;99.90;;;;;;7368719;19;20018;-62
2023/04/27 01:12:35;;;;;;;11.77;7.07;;;1.90;99.90;;;;;;7370417;19;20074;-62
2023/04/27 01:15:05;;;;;;;9.48;6.72;;;1.90;99.90;;;;;;7364315;19;20766;-62
2023/04/27 01:17:32;;;;;;;10.82;7.65;;;1.90;99.90;;;;;;7366346;19;20029;-62
2023/04/27 01:19:58;;;;;;;9.35;6.80;;;1.90;99.90;;;;;;7368205;19;20381;-62
2023/04/27 01:22:25;;;;;;;14.07;7.85;;;1.90;99.90;;;;;;7364854;19;20022;-61
2023/04/27 01:24:52;;;;;;;10.73;7.38;;;1.80;99.90;;;;;;7360837;19;20035;-61
2023/04/27 01:27:19;;;;;;;8.52;6.70;;;1.80;99.90;;;;;;7365875;19;20018;-61
2023/04/27 01:29:45;;;;;;;11.00;7.00;;;1.80;99.90;;;;;;7366568;19;20561;-61
2023/04/27 01:32:11;;;;;;;10.52;7.57;;;1.80;99.90;;;;;;7364980;19;20019;-61
2023/04/27 01:34:39;;;;;;;13.43;7.90;;;1.80;99.90;;;;;;7368170;19;20025;-61
2023/04/27 01:37:05;;;;;;;11.75;8.13;;;1.80;99.90;;;;;;7364850;19;20058;-62
2023/04/27 01:39:31;;;;;;;9.93;7.35;;;1.70;99.90;;;;;;7367443;19;20137;-61
2023/04/27 01:41:58;;;;;;;12.50;7.53;;;1.70;99.90;;;;;;7366819;19;20025;-61
2023/04/27 01:44:24;;;;;;;9.32;6.95;;;1.80;99.90;;;;;;7362263;19;20825;-61
2023/04/27 01:46:50;;;;;;;13.88;7.57;;;1.70;99.90;;;;;;7364613;19;20042;-61
2023/04/27 01:49:16;;;;;;;10.00;7.10;;;1.60;99.90;;;;;;7365784;19;20777;-61
2023/04/27 01:51:43;;;;;;;11.20;7.57;;;1.60;99.90;;;;;;7367768;19;20018;-61
2023/04/27 01:54:09;;;;;;;11.05;7.40;;;1.60;99.90;;;;;;7367286;19;20018;-61
2023/04/27 01:56:35;;;;;;;10.43;7.30;;;1.60;99.90;;;;;;7365606;19;20018;-61
2023/04/27 01:59:01;;;;;;;11.82;7.32;;;1.60;99.90;;;;;;7372176;19;20030;-60
2023/04/27 02:01:28;;;;;;;9.93;7.45;;;1.60;99.90;;;;;;7370997;19;20501;-61
2023/04/27 02:03:54;;;;;;;11.38;7.75;;;1.50;99.90;;;;;;7370334;19;20022;-61
2023/04/27 02:06:20;;;;;;;9.80;7.25;;;1.50;99.90;;;;;;7368709;19;20015;-61
2023/04/27 02:08:49;;;;;;;12.48;7.72;;;1.40;99.90;;;;;;7371506;19;20045;-61
2023/04/27 02:11:16;;;;;;;9.95;7.13;;;1.40;99.90;;;;;;7371186;19;20033;-62
2023/04/27 02:13:42;;;;;;;14.30;7.72;;;1.50;99.90;;;;;;7367619;19;20022;-62
2023/04/27 02:16:08;;;;;;;10.95;7.32;;;1.40;99.90;;;;;;7364572;19;20107;-61
2023/04/27 02:18:35;;;;;;;13.88;8.02;;;1.40;99.90;;;;;;7374941;19;20478;-61
2023/04/27 02:21:08;;;;;;;11.80;7.65;;;1.50;99.90;;;;;;7375005;19;20028;-61
2023/04/27 02:23:36;;;;;;;9.18;6.93;;;1.50;99.90;;;;;;7373410;19;20026;-61
2023/04/27 02:26:02;;;;;;;9.30;7.65;;;1.40;99.90;;;;;;7372985;19;21070;-60
2023/04/27 02:28:28;;;;;;;10.02;7.70;;;1.40;99.90;;;;;;7376855;19;20506;-61
2023/04/27 02:30:55;;;;;;;12.93;7.75;;;1.40;99.90;;;;;;7376838;19;20873;-61
2023/04/27 02:33:21;;;;;;;13.43;7.72;;;1.40;99.90;;;;;;7374161;19;20081;-61
2023/04/27 02:35:48;;;;;;;10.43;7.50;;;1.40;99.90;;;;;;7371663;19;20978;-61
2023/04/27 02:38:14;;;;;;;10.50;7.63;;;1.30;99.90;;;;;;7373292;19;20542;-61
2023/04/27 02:40:43;;;;;;;11.98;6.53;;;1.30;99.90;;;;;;7374945;19;20026;-61
2023/04/27 02:43:09;;;;;;;12.70;7.00;;;1.30;99.90;;;;;;7375287;19;20030;-60
2023/04/27 02:45:37;;;;;;;9.52;6.88;;;1.30;99.90;;;;;;7371533;19;20058;-61
2023/04/27 02:48:05;;;;;;;10.73;7.60;;;1.30;99.90;;;;;;7373958;19;20018;-62
2023/04/27 02:50:33;;;;;;;10.27;7.68;;;1.30;99.90;;;;;;7373949;19;20026;-61
2023/04/27 02:52:59;;;;;;;12.27;8.35;;;1.20;99.90;;;;;;7374320;19;20025;-61
2023/04/27 02:55:26;;;;;;;13.70;7.97;;;1.20;99.90;;;;;;7371695;19;20022;-61
2023/04/27 02:57:52;;;;;;;12.10;8.00;;;1.20;99.90;;;;;;7370241;19;20018;-61
2023/04/27 03:00:18;;;;;;;9.15;6.63;;;1.20;99.90;;;;;;7371665;19;20526;-61
2023/04/27 03:02:45;;;;;;;15.38;8.93;;;1.20;99.90;;;;;;7371464;19;20400;-61
2023/04/27 03:05:11;;;;;;;9.93;7.55;;;1.20;99.90;;;;;;7373728;19;20292;-61
2023/04/27 03:07:38;;;;;;;11.75;8.80;;;1.20;99.90;;;;;;7372242;19;20711;-61
2023/04/27 03:10:04;;;;;;;13.40;9.35;;;1.20;99.90;;;;;;7374458;19;20494;-61
2023/04/27 03:12:30;;;;;;;12.55;8.98;;;1.20;99.90;;;;;;7372189;19;20522;-61
2023/04/27 03:14:59;;;;;;;11.80;8.30;;;1.30;99.90;;;;;;7368831;19;20024;-61
2023/04/27 03:17:26;;;;;;;11.73;8.63;;;1.20;99.90;;;;;;7365824;19;20018;-61
2023/04/27 03:19:52;;;;;;;10.27;7.85;;;1.30;99.90;;;;;;7368497;19;20014;-61
2023/04/27 03:22:19;;;;;;;10.48;7.60;;;1.30;99.90;;;;;;7366198;19;20018;-61
2023/04/27 03:24:45;;;;;;;12.70;8.38;;;1.20;99.90;;;;;;7366402;19;20029;-61
2023/04/27 03:27:14;;;;;;;11.10;7.72;;;1.20;99.90;;;;;;7367961;19;20018;-61
2023/04/27 03:29:42;;;;;;;10.02;7.82;;;1.20;99.90;;;;;;7366934;19;21392;-61
2023/04/27 03:32:10;;;;;;;11.70;7.55;;;1.10;99.90;;;;;;7369478;19;20018;-61
2023/04/27 03:34:37;;;;;;;9.75;7.63;;;1.10;99.90;;;;;;7366357;19;20033;-60
2023/04/27 03:37:05;;;;;;;11.63;8.43;;;1.10;99.90;;;;;;7369651;19;20857;-61
2023/04/27 03:39:31;;;;;;;12.73;8.20;;;1.10;99.90;;;;;;7368721;19;20018;-61
2023/04/27 03:41:58;;;;;;;12.73;8.35;;;1.10;99.90;;;;;;7371214;19;20581;-60
2023/04/27 03:44:24;;;;;;;14.52;8.25;;;1.00;99.90;;;;;;7365168;19;20014;-60
2023/04/27 03:46:51;;;;;;;10.98;7.07;;;1.00;99.90;;;;;;7366422;19;20022;-60
2023/04/27 03:49:17;;;;;;;12.60;8.00;;;1.00;99.90;;;;;;7366094;19;20018;-60
2023/04/27 03:51:44;;;;;;;12.05;8.05;;;1.00;99.90;;;;;;7367082;19;20109;-61
2023/04/27 03:54:10;;;;;;;11.88;7.88;;;0.90;99.90;;;;;;7366903;19;20021;-61
2023/04/27 03:56:37;;;;;;;12.88;8.57;;;0.80;99.90;;;;;;7361115;19;20022;-60
2023/04/27 03:59:04;;;;;;;10.48;8.02;;;0.80;99.90;;;;;;7373421;19;20654;-60
2023/04/27 04:01:35;;;;;;;14.02;7.63;;;0.70;99.90;;;;;;7371918;19;20628;-60
2023/04/27 04:04:01;;;;;;;11.52;8.02;;;0.80;99.90;;;;;;7373288;19;20026;-60
2023/04/27 04:06:28;;;;;;;10.07;7.32;;;0.70;99.90;;;;;;7367660;19;20446;-60
2023/04/27 04:08:55;;;;;;;10.95;7.05;;;0.70;99.90;;;;;;7374385;19;20039;-60
2023/04/27 04:11:22;;;;;;;11.57;7.90;;;0.70;99.90;;;;;;7369868;19;20018;-61
2023/04/27 04:13:50;;;;;;;13.63;8.77;;;0.70;99.90;;;;;;7371576;19;20823;-61
2023/04/27 04:16:16;;;;;;;14.45;8.43;;;0.70;99.90;;;;;;7368714;19;20033;-60
2023/04/27 04:18:43;;;;;;;14.18;8.23;;;0.70;99.90;;;;;;7370668;19;20049;-60
2023/04/27 04:21:10;;;;;;;11.85;8.40;;;0.70;99.90;;;;;;7371747;19;20028;-60
2023/04/27 04:23:37;;;;;;;14.70;8.15;;;0.70;99.90;;;;;;7370393;19;20018;-60
2023/04/27 04:26:04;;;;;;;11.57;7.78;;;0.70;99.90;;;;;;7364463;19;20022;-60
2023/04/27 04:28:33;;;;;;;15.00;8.15;;;0.70;99.90;;;;;;7367789;19;20648;-60
2023/04/27 04:31:00;;;;;;;14.13;8.40;;;0.70;99.90;;;;;;7370330;19;20019;-60
2023/04/27 04:33:27;;;;;;;12.38;8.38;;;0.70;99.90;;;;;;7373020;19;20015;-60
2023/04/27 04:35:53;;;;;;;11.88;8.32;;;0.80;99.90;;;;;;7370243;19;20026;-61
2023/04/27 04:38:22;;;;;;;13.65;8.98;;;0.80;99.90;;;;;;7367808;19;20522;-60
2023/04/27 04:40:49;;;;;;;12.43;8.73;;;0.90;99.90;;;;;;7371112;19;20789;-60
2023/04/27 04:43:15;;;;;;;16.65;9.02;;;0.90;99.90;;;;;;7370303;19;20022;-60
2023/04/27 04:45:42;;;;;;;15.05;8.77;;;0.90;99.90;;;;;;7371083;19;20019;-60
2023/04/27 04:48:09;;;;;;;15.40;8.57;;;0.90;99.90;;;;;;7367230;19;20019;-60
2023/04/27 04:50:35;;;;;;;12.90;9.13;;;1.00;99.90;;;;;;7369136;19;20691;-60
2023/04/27 04:53:02;;;;;;;13.88;9.00;;;0.90;99.90;;;;;;7371399;19;20015;-61
2023/04/27 04:55:28;;;;;;;12.40;9.02;;;1.10;99.90;;;;;;7368908;19;20023;-60
2023/04/27 04:57:54;;;;;;;14.18;8.75;;;1.10;99.90;;;;;;7363057;19;20022;-61
2023/04/27 05:00:21;;;;;;;16.20;9.38;;;1.10;99.90;;;;;;7370876;19;20019;-61
2023/04/27 05:02:47;;;;;;;14.77;9.70;;;1.10;99.90;;;;;;7371490;19;20623;-61
2023/04/27 05:05:13;;;;;;;15.50;9.57;;;1.20;99.90;;;;;;7372210;19;20608;-60
2023/04/27 05:07:39;;;;;;;12.80;9.27;;;1.30;99.90;;;;;;7369513;19;20377;-61
2023/04/27 05:10:06;;;;;;;12.82;9.02;;;1.30;99.90;;;;;;7368985;19;20508;-61
2023/04/27 05:12:32;;;;;;;13.30;8.48;;;1.30;99.90;;;;;;7370288;19;20354;-60
2023/04/27 05:14:58;;;;;;;12.15;8.30;;;1.30;99.90;;;;;;7368464;19;20014;-60
2023/04/27 05:17:25;;;;;;;14.20;8.57;;;1.40;99.90;;;;;;7364699;19;20806;-60
2023/04/27 05:19:51;;;;;;;14.20;8.55;;;1.50;99.90;;;;;;7372001;19;20978;-61
2023/04/27 05:22:18;;;;;;;12.05;8.55;;;1.60;99.90;;;;;;7369529;19;20485;-61
2023/04/27 05:24:44;;;;;;;9.95;7.30;;;1.80;99.90;;;;;;7369320;19;20694;-61
2023/04/27 05:27:12;;;;;;;10.57;7.05;;;1.90;99.90;;;;;;7378087;19;20033;-61
2023/04/27 05:29:38;;;;;;;12.98;6.85;;;2.10;99.90;;;;;;7379137;19;20023;-60
2023/04/27 05:32:05;;;;;;;12.70;6.60;;;2.10;99.90;;;;;;7377270;19;20018;-61
2023/04/27 05:34:31;;;;;;;10.32;6.55;;;2.20;99.90;;;;;;7378152;19;20018;-61
2023/04/27 05:36:57;;;;;;;10.65;7.38;;;2.40;99.90;;;;;;7371205;19;20018;-60
2023/04/27 05:39:25;;;;;;;11.68;7.80;;;2.40;99.90;;;;;;7373767;19;20098;-60
2023/04/27 05:41:52;;;;;;;13.00;7.80;;;2.40;99.90;;;;;;7372963;19;20019;-61
2023/04/27 05:44:19;;;;;;;10.68;7.65;;;2.60;99.90;;;;;;7370495;19;20174;-60
2023/04/27 05:46:45;;;;;;;9.45;7.55;;;2.70;99.90;;;;;;7370587;19;20014;-61
2023/04/27 05:49:11;;;;;;;11.45;8.30;;;2.90;99.90;;;;;;7371879;19;20060;-60
2023/04/27 05:51:37;;;;;;;9.75;8.40;;;3.00;99.90;;;;;;7369152;19;20512;-60
2023/04/27 05:54:04;;;;;;;11.73;8.18;;;3.10;99.90;;;;;;7371377;19;20606;-60
2023/04/27 05:56:30;;;;;;;11.25;7.32;;;3.30;99.90;;;;;;7366551;19;20393;-60
2023/04/27 05:58:56;;;;;;;10.43;8.00;;;3.50;99.90;;;;;;7368758;19;20027;-60
2023/04/27 06:01:23;;;;;;;11.25;7.78;;;3.70;99.90;;;;;;7373395;19;20018;-60
2023/04/27 06:03:49;;;;;;;9.90;7.63;;;3.80;99.90;;;;;;7372304;19;21466;-60
2023/04/27 06:06:15;;;;;;;9.85;7.78;;;4.10;99.90;;;;;;7372689;19;20022;-60
2023/04/27 06:08:42;;;;;;;8.70;6.85;;;4.30;99.90;;;;;;7370262;19;20854;-60
2023/04/27 06:11:08;;;;;;;9.63;7.13;;;4.80;99.90;;;;;;7372586;19;20022;-60
2023/04/27 06:13:34;;;;;;;9.40;7.60;;;5.00;99.90;;;;;;7370003;19;20022;-60
2023/04/27 06:16:00;;;;;;;10.48;7.15;;;5.30;99.90;;;;;;7373395;19;20026;-61
2023/04/27 06:18:27;;;;;;;7.88;6.75;;;5.50;99.90;;;;;;7372185;19;20027;-62
2023/04/27 06:21:00;;;;;;;9.25;6.93;;;5.60;99.90;;;;;;7370692;19;20608;-63
2023/04/27 06:23:30;;;;;;;9.55;6.40;;;5.90;99.90;;;;;;7370578;19;20740;-62
2023/04/27 06:25:57;;;;;;;10.70;7.07;;;6.10;99.90;;;;;;7372742;19;20026;-62
2023/04/27 06:28:23;;;;;;;9.70;6.75;;;6.30;99.90;;;;;;7370713;19;20094;-62
2023/04/27 06:30:50;;;;;;;9.35;6.50;;;6.50;99.90;;;;;;7368752;19;20014;-62
2023/04/27 06:33:16;;;;;;;9.93;6.38;;;6.50;99.90;;;;;;7371780;19;20018;-63
2023/04/27 06:35:43;;;;;;;8.38;5.35;;;6.70;99.90;;;;;;7369221;19;20022;-62
2023/04/27 06:38:09;;;;;;;9.05;5.60;;;6.90;99.90;;;;;;7372784;19;20033;-63
2023/04/27 06:40:37;;;;;;;9.00;5.80;;;7.10;99.90;;;;;;7372364;19;20015;-62
2023/04/27 06:43:03;;;;;;;6.50;5.18;;;7.40;99.90;;;;;;7372389;19;20026;-61
2023/04/27 06:45:29;;;;;;;7.85;5.25;;;7.60;99.90;;;;;;7372067;19;20010;-61
2023/04/27 06:47:56;;;;;;;7.78;5.15;;;7.80;99.90;;;;;;7374071;19;20022;-62
2023/04/27 06:50:22;;;;;;;9.25;5.20;;;8.00;99.90;;;;;;7374233;19;20018;-62
2023/04/27 06:52:48;;;;;;;10.10;5.63;;;8.30;99.90;;;;;;7370356;19;20478;-62
2023/04/27 06:55:14;;;;;;;6.53;5.28;;;8.50;99.90;;;;;;7372616;19;20018;-62
2023/04/27 06:57:41;;;;;;;6.53;4.80;;;8.80;99.90;;;;;;7367044;19;20491;-62
2023/04/27 07:00:08;;;;;;;7.25;4.30;;;9.00;99.90;;;;;;7373468;19;20022;-61
2023/04/27 07:02:34;;;;;;;7.75;4.13;;;9.30;99.90;;;;;;7369576;19;20614;-61
2023/04/27 07:05:00;;;;;;;9.40;4.18;;;9.60;99.90;;;;;;7373984;19;20039;-61
2023/04/27 07:07:27;;;;;;;6.72;3.60;;;9.80;99.90;;;;;;7373949;19;20021;-60
2023/04/27 07:09:53;;;;;;;5.95;3.55;;;9.90;99.90;;;;;;7376048;19;20029;-62
2023/04/27 07:12:19;;;;;;;7.00;4.20;;;10.20;99.90;;;;;;7371991;19;20022;-62
2023/04/27 07:14:45;;;;;;;5.25;3.75;;;10.50;99.90;;;;;;7375330;19;20018;-61
2023/04/27 07:17:12;;;;;;;8.38;4.25;;;10.60;99.90;;;;;;7371375;19;20043;-61
2023/04/27 07:19:38;;;;;;;10.65;4.15;;;10.70;99.90;;;;;;7371786;19;20025;-61
2023/04/27 07:22:04;;;;;;;7.60;3.75;;;11.00;99.90;;;;;;7371883;19;20018;-62
2023/04/27 07:24:31;;;;;;;5.00;3.03;;;11.10;99.90;;;;;;7367437;19;20031;-61
2023/04/27 07:26:58;;;;;;;5.32;3.53;;;11.30;99.90;;;;;;7373927;19;20018;-62
2023/04/27 07:29:26;;;;;;;8.52;3.35;;;11.40;99.90;;;;;;7373092;19;20015;-62
2023/04/27 07:31:54;;;;;;;5.93;3.05;;;11.40;99.90;;;;;;7370726;19;20021;-62
2023/04/27 07:34:20;;;;;;;6.13;2.95;;;11.70;99.90;;;;;;7371371;19;20362;-61
2023/04/27 07:36:47;;;;;;;5.60;2.67;;;12.00;99.90;;;;;;7369510;19;20082;-61
2023/04/27 07:39:13;;;;;;;5.72;3.00;;;12.00;99.90;;;;;;7369556;19;20028;-61
2023/04/27 07:41:40;;;;;;;5.65;2.97;;;11.90;99.90;;;;;;7367848;19;20078;-61
2023/04/27 07:44:07;;;;;;;9.25;2.85;;;12.00;99.90;;;;;;7370018;19;20018;-61
2023/04/27 07:46:33;;;;;;;5.28;2.90;;;12.20;99.90;;;;;;7372181;19;20025;-61
2023/04/27 07:48:59;;;;;;;7.10;2.83;;;12.60;99.90;;;;;;7366353;19;20587;-60
2023/04/27 07:51:27;;;;;;;6.85;3.22;;;12.60;99.90;;;;;;7371538;19;20082;-61
2023/04/27 07:53:54;;;;;;;3.70;2.60;;;12.70;99.90;;;;;;7351173;19;20596;-62
2023/04/27 07:56:21;;;;;;;6.43;2.33;;;12.60;90.30;;;;;;7367993;19;20014;-62
2023/04/27 07:58:47;;;;;;;4.68;2.63;;;12.80;99.90;;;;;;7368202;19;20018;-60
2023/04/27 08:01:14;;;;;;;5.22;2.40;;;12.70;93.20;;;;;;7372804;19;20122;-60
2023/04/27 08:03:40;;;;;;;7.20;2.50;;;12.70;77.40;;;;;;7368019;19;20025;-61
2023/04/27 08:06:07;;;;;;;5.07;1.77;;;12.50;72.60;;;;;;7370132;19;20022;-61
2023/04/27 08:08:33;;;;;;;4.28;2.33;;;12.60;68.10;;;;;;7367083;19;20023;-60
2023/04/27 08:10:59;;;;;;;4.60;2.17;;;13.00;65.90;;;;;;7371794;19;20035;-60
2023/04/27 08:13:25;;;;;;;5.97;2.38;;;13.30;67.80;;;;;;7369551;19;20506;-60
2023/04/27 08:15:57;;;;;;;5.35;2.80;;;13.30;67.90;;;;;;7368568;19;20018;-60
2023/04/27 08:18:24;;;;;;;4.97;2.08;;;13.40;68.50;;;;;;7368439;19;20046;-60
2023/04/27 08:20:51;;;;;;;4.60;2.50;;;13.60;66.80;;;;;;7369925;19;20364;-60
2023/04/27 08:23:18;;;;;;;7.53;2.85;;;13.80;69.50;;;;;;7369683;19;20039;-60
2023/04/27 08:25:44;;;;;;;4.15;2.30;;;13.90;67.00;;;;;;7366990;19;20023;-61
2023/04/27 08:28:12;;;;;;;7.88;2.15;;;14.00;66.60;;;;;;7369365;19;20035;-61
2023/04/27 08:30:40;;;;;;;5.07;2.20;;;14.00;64.50;;;;;;7362287;19;20022;-61
2023/04/27 08:33:07;;;;;;;6.85;2.70;;;14.10;64.50;;;;;;7366930;19;20014;-61
2023/04/27 08:35:34;;;;;;;4.15;2.08;;;14.00;65.70;;;;;;7372547;19;20102;-60
2023/04/27 08:38:00;;;;;;;4.63;2.42;;;14.20;63.30;;;;;;7365160;19;20023;-62
2023/04/27 08:40:27;;;;;;;4.32;2.20;;;14.20;61.20;;;;;;7366278;19;20022;-62
2023/04/27 08:42:59;;;;;;;4.78;2.40;;;13.90;57.80;;;;;;7368265;19;20019;-61
2023/04/27 08:45:26;;;;;;;5.07;2.83;;;13.90;59.40;;;;;;7366673;19;20015;-61
2023/04/27 08:47:53;;;;;;;4.60;2.20;;;14.00;60.40;;;;;;7365776;19;20101;-61
2023/04/27 08:50:20;;;;;;;5.15;2.28;;;14.10;57.90;;;;;;7370090;19;20094;-63
2023/04/27 08:52:47;;;;;;;5.63;2.65;;;14.40;57.60;;;;;;7367467;19;20090;-66
2023/04/27 08:55:14;;;;;;;4.88;2.55;;;14.40;57.80;;;;;;7370699;19;20018;-62
2023/04/27 08:57:40;;;;;;;4.07;2.50;;;14.50;57.50;;;;;;7368307;19;20022;-61
2023/04/27 09:00:12;;;;;;;4.07;2.65;;;14.80;58.40;;;;;;7374445;19;20243;-62
2023/04/27 09:02:45;;;;;;;13.52;10.73;;;15.00;57.60;;;;;;7376927;19;20038;-65
2023/04/27 09:05:17;;;;;;;;;;;15.30;59.30;;;;;;7371570;19;20019;-62
2023/04/27 09:08:06;;;;;;;6.72;3.38;;;15.50;57.80;;;;;;7374772;19;20037;-62
2023/04/27 09:10:47;;;;;;;6.20;2.92;;;15.50;54.90;;;;;;7375991;19;20078;-60
2023/04/27 09:13:14;;;;;;;7.07;3.60;;;15.70;53.40;;;;;;7374386;19;20482;-63
2023/04/27 09:15:42;;;;;;;7.15;3.33;;;15.70;55.70;;;;;;7375181;19;20041;-62
2023/04/27 09:18:20;;;;;;;6.40;3.40;;;15.40;53.70;;;;;;7374930;19;20060;-59
2023/04/27 09:20:52;;;;;;;5.95;3.30;;;15.60;53.40;;;;;;7378317;19;20025;-61
2023/04/27 09:23:35;;;;;;;4.95;2.97;;;16.10;53.10;;;;;;7375985;19;20052;-63
2023/04/27 09:26:07;;;;;;;5.47;3.35;;;15.80;50.80;;;;;;7375971;19;20026;-62
2023/04/27 09:28:36;;;;;;;5.70;3.50;;;16.40;53.60;;;;;;7370818;19;20033;-61
2023/04/27 09:31:04;;;;;;;6.70;3.50;;;16.30;53.40;;;;;;7377229;19;20014;-62
2023/04/27 09:33:32;;;;;;;7.57;3.95;;;16.20;51.70;;;;;;7377337;19;20033;-61
2023/04/27 09:36:00;;;;;;;7.10;4.22;;;16.30;52.60;;;;;;7376386;19;20022;-60
2023/04/27 09:38:28;;;;;;;5.72;4.25;;;16.90;52.40;;;;;;7377028;19;20900;-61
2023/04/27 09:40:55;;;;;;;7.28;4.50;;;17.10;52.00;;;;;;7375389;19;20055;-62
2023/04/27 09:43:26;;;;;;;8.38;4.85;;;17.30;51.70;;;;;;7374058;19;20019;-64
2023/04/27 09:45:53;;;;;;;6.40;4.13;;;17.60;49.40;;;;;;7375257;19;20015;-64
2023/04/27 09:48:21;;;;;;;6.65;3.80;;;16.80;50.10;;;;;;7382193;19;20046;-62
2023/04/27 09:50:49;;;;;;;9.00;4.28;;;16.50;50.80;;;;;;7377167;19;20018;-63
2023/04/27 09:53:44;;;;;;;11.48;8.00;;;15.80;48.70;;;;;;7373068;19;20019;-70
2023/04/27 09:56:41;;;;;;;8.88;5.10;;;15.50;50.90;;;;;;7369261;19;20031;-63
2023/04/27 09:59:15;;;;;;;6.65;4.32;;;15.10;50.30;;;;;;7380633;19;20030;-67
2023/04/27 10:01:46;;;;;;;8.07;3.97;;;15.50;51.10;;;;;;7375990;19;20018;-62
2023/04/27 10:04:38;;;;;;;6.15;3.47;;;16.20;50.70;;;;;;7378702;19;21234;-63
2023/04/27 10:07:08;;;;;;;5.70;3.50;;;16.70;49.40;;;;;;7374818;19;20018;-62
2023/04/27 10:09:40;;;;;;;5.30;3.50;;;16.10;48.90;;;;;;7377726;19;20018;-60
2023/04/27 10:12:18;;;;;;;5.88;3.97;;;16.40;49.20;;;;;;7373150;19;20278;-61
2023/04/27 10:14:52;;;;;;;7.53;3.80;;;16.80;49.60;;;;;;7370968;19;20019;-61
2023/04/27 10:17:34;;;;;;;8.32;5.40;;;16.70;49.90;;;;;;7374759;19;20026;-60
2023/04/27 10:20:06;;;;;;;;;;;16.60;50.60;;;;;;7378870;19;20032;-66
2023/04/27 10:22:51;;;;;;;5.50;3.90;;;16.10;49.30;;;;;;7376984;19;19995;-61
2023/04/27 10:25:39;;;;;;;7.68;3.67;;;16.30;50.10;;;;;;7375280;19;20053;-67
2023/04/27 10:28:07;;;;;;;6.97;4.05;;;16.30;50.00;;;;;;7371784;19;20026;-70
2023/04/27 10:30:37;;;;;;;7.18;4.28;;;16.10;48.50;;;;;;7374611;19;20068;-72
2023/04/27 10:33:09;;;;;;;8.90;4.38;;;16.40;50.50;;;;;;7374907;19;20015;-71
2023/04/27 10:35:45;;;;;;;7.72;4.10;;;16.50;48.90;;;;;;7375987;19;20623;-73
2023/04/27 10:38:18;;;;;;;7.30;3.70;;;16.80;49.30;;;;;;7374964;19;20042;-61
2023/04/27 10:40:52;;;;;;;6.78;4.35;;;17.10;49.60;;;;;;7373243;19;20022;-60
2023/04/27 10:43:27;;;;;;;11.48;5.07;;;17.20;48.50;;;;;;7374180;19;20037;-66
2023/04/27 10:46:10;;;;;;;9.93;4.60;;;16.90;47.20;;;;;;7374699;19;20025;-60
2023/04/27 10:48:38;;;;;;;6.35;4.07;;;17.10;46.80;;;;;;7372524;19;20018;-65
2023/04/27 10:51:05;;;;;;;8.35;4.70;;;16.80;46.60;;;;;;7371056;19;20018;-60
2023/04/27 10:53:37;;;;;;;7.18;4.65;;;17.00;46.90;;;;;;7372813;19;20378;-66
2023/04/27 10:56:05;;;;;;;6.80;4.15;;;17.30;47.10;;;;;;7374297;19;20116;-65
2023/04/27 10:58:33;;;;;;;6.47;4.43;;;17.40;47.30;;;;;;7375616;19;20608;-66
2023/04/27 11:00:59;;;;;;;8.50;4.78;;;17.30;46.30;;;;;;7371786;19;20079;-66
2023/04/27 11:03:25;;;;;;;7.05;4.68;;;17.60;47.70;;;;;;7373666;19;20023;-60
2023/04/27 11:06:01;;;;;;;6.47;4.00;;;17.20;44.70;;;;;;7371726;19;20026;-59
2023/04/27 11:08:31;;;;;;;7.03;4.22;;;17.20;46.00;;;;;;7372342;19;20014;-60
2023/04/27 11:10:58;;;;;;;10.30;4.73;;;17.30;45.80;;;;;;7373544;19;20028;-66
2023/04/27 11:13:27;;;;;;;5.93;3.97;;;17.60;45.30;;;;;;7375412;19;20025;-60
2023/04/27 11:15:55;;;;;;;6.88;4.15;;;17.00;44.50;;;;;;7371108;19;20015;-65
2023/04/27 11:18:23;;;;;;;5.85;4.30;;;17.30;46.00;;;;;;7374604;19;20042;-60
2023/04/27 11:21:25;;;;;;;7.65;4.53;;;17.10;46.90;;;;;;7376160;19;20022;-61
2023/04/27 11:23:52;;;;;;;6.25;4.22;;;17.10;46.30;;;;;;7368399;19;20494;-60
2023/04/27 11:26:21;;;;;;;9.45;4.90;;;17.10;47.00;;;;;;7372911;19;20352;-60
2023/04/27 11:29:08;;;;;;;7.28;4.47;;;17.20;46.10;;;;;;7368714;19;20022;-66
2023/04/27 11:31:50;;;;;;;6.68;4.35;;;17.30;46.50;;;;;;7371616;19;20466;-60
2023/04/27 11:34:17;;;;;;;5.82;3.72;;;17.50;48.70;;;;;;7372225;19;20018;-66
2023/04/27 11:36:44;;;;;;;7.20;4.15;;;17.80;48.60;;;;;;7370636;19;20015;-63
2023/04/27 11:39:21;;;;;;;5.82;3.25;;;17.80;47.20;;;;;;7373260;19;20014;-63
2023/04/27 11:41:47;;;;;;;10.40;3.65;;;18.00;45.30;;;;;;7375146;19;20019;-60
2023/04/27 11:44:26;;;;;;;8.77;4.65;;;17.70;45.30;;;;;;7403617;19;20992;-60
2023/04/27 11:46:53;;;;;;;6.10;4.03;;;17.00;45.80;;;;;;7408205;19;21022;-60
2023/04/27 11:49:19;;;;;;;6.60;4.57;;;17.00;47.30;;;;;;7406207;19;20411;-61
2023/04/27 11:51:47;;;;;;;8.38;4.55;;;16.90;47.30;;;;;;7408930;19;20361;-65
2023/04/27 11:54:14;;;;;;;7.10;4.05;;;16.90;47.00;;;;;;7407289;19;20109;-60
2023/04/27 11:56:41;;;;;;;7.38;3.97;;;16.80;46.70;;;;;;7405826;19;20019;-64
2023/04/27 11:59:26;;;;;;;6.68;3.60;;;17.20;46.70;;;;;;7408571;19;20022;-64
2023/04/27 12:01:52;;;;;;;6.20;3.97;;;17.10;45.30;;;;;;7408530;19;20022;-64
2023/04/27 12:04:19;;;;;;;4.70;3.13;;;17.60;45.30;;;;;;7406377;19;20014;-64
2023/04/27 12:06:45;;;;;;;6.68;3.60;;;17.40;45.10;;;;;;7405221;19;20089;-61
2023/04/27 12:09:12;;;;;;;5.00;3.67;;;18.00;44.40;;;;;;7398825;19;20134;-61
2023/04/27 12:11:39;;;;;;;6.32;3.65;;;18.20;44.50;;;;;;7406649;19;20022;-60
2023/04/27 12:14:06;;;;;;;5.10;3.78;;;17.70;44.80;;;;;;7408152;19;20049;-61
2023/04/27 12:16:33;;;;;;;4.85;2.88;;;17.30;45.30;;;;;;7407087;19;20097;-61
2023/04/27 12:19:00;;;;;;;6.68;3.63;;;17.40;46.70;;;;;;7406247;19;20007;-60
2023/04/27 12:21:26;;;;;;;5.68;3.70;;;16.90;46.20;;;;;;7410144;19;20048;-60
2023/04/27 12:23:53;;;;;;;11.52;7.10;;;16.80;46.70;;;;;;7402268;19;20014;-61
2023/04/27 12:26:19;;;;;;;7.50;4.43;;;18.00;46.60;;;;;;7405383;19;20025;-60
2023/04/27 12:28:46;;;;;;;7.90;4.82;;;18.00;45.70;;;;;;7406733;19;20713;-64
2023/04/27 12:31:15;;;;;;;5.80;3.65;;;18.00;46.40;;;;;;7405905;19;20025;-64
2023/04/27 12:33:42;;;;;;;7.60;3.67;;;18.00;45.90;;;;;;7408903;19;20082;-64
2023/04/27 12:36:08;;;;;;;6.03;3.42;;;17.00;44.50;;;;;;7404072;19;20761;-60
2023/04/27 12:38:37;;;;;;;5.93;3.80;;;17.10;44.70;;;;;;7408011;19;20019;-64
2023/04/27 12:41:03;;;;;;;6.82;3.75;;;17.50;45.10;;;;;;7406072;19;20018;-64
2023/04/27 12:43:30;;;;;;;8.13;3.67;;;17.50;45.50;;;;;;7403892;19;20046;-64
2023/04/27 12:45:56;;;;;;;6.93;4.03;;;17.70;46.60;;;;;;7400711;19;20018;-64
2023/04/27 12:48:23;;;;;;;7.38;3.65;;;17.40;45.60;;;;;;7404197;19;20021;-64
2023/04/27 12:50:50;;;;;;;9.52;4.45;;;17.50;46.60;;;;;;7407707;19;20705;-64
2023/04/27 12:53:17;;;;;;;7.07;4.22;;;17.50;47.20;;;;;;7407574;19;20018;-64